createdAt,value
2017-02-14T00:00:56.070Z,0
2017-02-14T00:02:06.727Z,0
2017-02-14T00:03:16.200Z,0
2017-02-14T00:04:25.964Z,0
2017-02-14T00:05:37.036Z,0
2017-02-14T00:06:46.811Z,0
2017-02-14T00:07:56.578Z,0
2017-02-14T00:09:06.811Z,0
2017-02-14T00:10:16.996Z,0
2017-02-14T00:11:26.301Z,0
2017-02-14T00:12:36.072Z,0
2017-02-14T00:13:46.294Z,0
2017-02-14T00:14:56.562Z,0
2017-02-14T00:16:06.761Z,0
2017-02-14T00:17:16.519Z,0
2017-02-14T00:18:25.860Z,0
2017-02-14T00:19:36.048Z,0
2017-02-14T00:20:45.858Z,0
2017-02-14T00:21:56.061Z,0
2017-02-14T00:23:05.824Z,0
2017-02-14T00:24:15.150Z,0
2017-02-14T00:25:24.903Z,0
2017-02-14T00:26:34.265Z,0
2017-02-14T00:27:43.570Z,0
2017-02-14T00:28:53.317Z,0
2017-02-14T00:30:03.519Z,0
2017-02-14T00:31:12.820Z,0
2017-02-14T00:32:23.111Z,0
2017-02-14T00:33:33.308Z,0
2017-02-14T00:34:42.628Z,0
2017-02-14T00:35:52.398Z,0
2017-02-14T00:37:02.185Z,0
2017-02-14T00:38:12.867Z,0
2017-02-14T00:39:23.546Z,0
2017-02-14T00:40:32.854Z,0
2017-02-14T00:41:42.174Z,0
2017-02-14T00:42:51.936Z,0
2017-02-14T00:44:01.727Z,0
2017-02-14T00:45:11.481Z,0
2017-02-14T00:46:21.232Z,0
2017-02-14T00:47:30.993Z,0
2017-02-14T00:48:41.644Z,0
2017-02-14T00:49:51.895Z,0
2017-02-14T00:51:02.979Z,0
2017-02-14T00:52:12.295Z,0
2017-02-14T00:53:22.927Z,0
2017-02-14T00:54:33.124Z,0
2017-02-14T00:55:44.253Z,0
2017-02-14T00:56:54.486Z,0
2017-02-14T00:58:04.271Z,0
2017-02-14T00:59:14.028Z,0
2017-02-14T01:00:24.238Z,0
2017-02-14T01:01:34.976Z,0
2017-02-14T01:02:44.719Z,0
2017-02-14T01:03:54.453Z,0
2017-02-14T01:05:03.771Z,0
2017-02-14T01:06:13.520Z,0
2017-02-14T01:07:23.762Z,0
2017-02-14T01:08:34.407Z,0
2017-02-14T01:09:44.616Z,0
2017-02-14T01:10:54.813Z,0
2017-02-14T01:12:04.150Z,0
2017-02-14T01:13:13.535Z,0
2017-02-14T01:14:23.308Z,0
2017-02-14T01:15:33.533Z,0
2017-02-14T01:16:43.719Z,0
2017-02-14T01:17:53.467Z,0
2017-02-14T01:19:03.425Z,0
2017-02-14T01:20:13.171Z,0
2017-02-14T01:21:23.375Z,0
2017-02-14T01:22:32.716Z,0
2017-02-14T01:23:43.359Z,0
2017-02-14T01:24:53.614Z,0
2017-02-14T01:26:03.380Z,0
2017-02-14T01:27:13.133Z,0
2017-02-14T01:28:22.908Z,0
2017-02-14T01:29:32.232Z,0
2017-02-14T01:30:42.053Z,0
2017-02-14T01:31:52.282Z,0
2017-02-14T01:33:02.466Z,0
2017-02-14T01:34:12.684Z,0
2017-02-14T01:35:22.888Z,0
2017-02-14T01:36:32.701Z,0
2017-02-14T01:37:42.889Z,0
2017-02-14T01:38:52.693Z,0
2017-02-14T01:40:03.321Z,0
2017-02-14T01:41:13.516Z,0
2017-02-14T01:42:23.333Z,0
2017-02-14T01:43:33.100Z,0
2017-02-14T01:44:43.734Z,0
2017-02-14T01:45:54.368Z,0
2017-02-14T01:47:04.113Z,0
2017-02-14T01:48:13.491Z,0
2017-02-14T01:49:22.816Z,0
2017-02-14T01:50:33.449Z,0
2017-02-14T01:51:43.254Z,0
2017-02-14T01:52:52.562Z,0
2017-02-14T01:54:02.828Z,0
2017-02-14T01:55:13.049Z,0
2017-02-14T01:56:23.249Z,0
2017-02-14T01:57:32.576Z,0
2017-02-14T01:58:42.328Z,0
2017-02-14T01:59:52.138Z,0
2017-02-14T02:01:02.350Z,0
2017-02-14T02:02:12.148Z,0
2017-02-14T02:03:22.338Z,0
2017-02-14T02:04:32.109Z,0
2017-02-14T02:05:41.467Z,0
2017-02-14T02:06:51.236Z,0
2017-02-14T02:08:01.488Z,0
2017-02-14T02:09:11.673Z,0
2017-02-14T02:10:21.869Z,0
2017-02-14T02:11:31.282Z,0
2017-02-14T02:12:41.478Z,0
2017-02-14T02:13:51.237Z,0
2017-02-14T02:15:00.994Z,0
2017-02-14T02:16:10.319Z,0
2017-02-14T02:17:20.166Z,0
2017-02-14T02:18:30.369Z,0
2017-02-14T02:19:41.030Z,0
2017-02-14T02:20:50.778Z,0
2017-02-14T02:22:00.995Z,0
2017-02-14T02:23:11.657Z,0
2017-02-14T02:24:21.412Z,0
2017-02-14T02:25:32.087Z,0
2017-02-14T02:26:41.392Z,0
2017-02-14T02:27:51.578Z,0
2017-02-14T02:29:00.944Z,0
2017-02-14T02:30:10.261Z,0
2017-02-14T02:31:20.017Z,0
2017-02-14T02:32:30.225Z,0
2017-02-14T02:33:40.002Z,0
2017-02-14T02:34:49.810Z,0
2017-02-14T02:35:59.579Z,0
2017-02-14T02:37:08.915Z,0
2017-02-14T02:38:18.673Z,0
2017-02-14T02:39:28.430Z,0
2017-02-14T02:40:38.243Z,0
2017-02-14T02:41:47.999Z,0
2017-02-14T02:42:58.638Z,0
2017-02-14T02:44:07.949Z,0
2017-02-14T02:45:17.745Z,0
2017-02-14T02:46:27.701Z,0
2017-02-14T02:47:37.446Z,0
2017-02-14T02:48:47.216Z,0
2017-02-14T02:49:56.984Z,0
2017-02-14T02:51:06.754Z,0
2017-02-14T02:52:16.578Z,0
2017-02-14T02:53:26.781Z,0
2017-02-14T02:54:36.552Z,0
2017-02-14T02:55:46.751Z,0
2017-02-14T02:56:57.013Z,0
2017-02-14T02:58:06.840Z,0
2017-02-14T02:59:16.619Z,0
2017-02-14T03:00:26.828Z,0
2017-02-14T03:01:36.580Z,0
2017-02-14T03:02:45.901Z,0
2017-02-14T03:03:55.717Z,0
2017-02-14T03:05:05.913Z,0
2017-02-14T03:06:15.693Z,0
2017-02-14T03:07:25.911Z,0
2017-02-14T03:08:35.680Z,0
2017-02-14T03:09:45.531Z,0
2017-02-14T03:10:56.170Z,0
2017-02-14T03:12:05.933Z,0
2017-02-14T03:13:15.698Z,0
2017-02-14T03:14:25.021Z,0
2017-02-14T03:15:34.402Z,0
2017-02-14T03:16:44.191Z,0
2017-02-14T03:17:53.969Z,0
2017-02-14T03:19:03.729Z,0
2017-02-14T03:20:13.958Z,0
2017-02-14T03:21:23.332Z,0
2017-02-14T03:22:33.090Z,0
2017-02-14T03:23:42.866Z,0
2017-02-14T03:24:52.639Z,0
2017-02-14T03:26:02.880Z,0
2017-02-14T03:27:12.705Z,0
2017-02-14T03:28:22.463Z,0
2017-02-14T03:29:32.263Z,0
2017-02-14T03:30:42.045Z,0
2017-02-14T03:31:51.820Z,0
2017-02-14T03:33:01.671Z,0
2017-02-14T03:34:11.432Z,0
2017-02-14T03:35:21.644Z,0
2017-02-14T03:36:31.855Z,0
2017-02-14T03:37:41.632Z,0
2017-02-14T03:38:51.904Z,0
2017-02-14T03:40:02.098Z,0
2017-02-14T03:41:12.313Z,0
2017-02-14T03:42:22.089Z,0
2017-02-14T03:43:31.429Z,0
2017-02-14T03:44:41.667Z,0
2017-02-14T03:45:51.436Z,0
2017-02-14T03:47:00.802Z,0
2017-02-14T03:48:11.029Z,0
2017-02-14T03:49:20.812Z,0
2017-02-14T03:50:30.368Z,0
2017-02-14T03:51:39.746Z,0
2017-02-14T03:52:49.975Z,0
2017-02-14T03:53:59.729Z,0
2017-02-14T03:55:09.504Z,0
2017-02-14T03:56:19.763Z,0
2017-02-14T03:57:30.430Z,0
2017-02-14T03:58:40.199Z,0
2017-02-14T03:59:50.835Z,0
2017-02-14T04:01:00.595Z,0
2017-02-14T04:02:10.837Z,0
2017-02-14T04:03:20.596Z,0
2017-02-14T04:04:30.376Z,0
2017-02-14T04:05:40.157Z,0
2017-02-14T04:06:49.939Z,0
2017-02-14T04:07:59.751Z,0
2017-02-14T04:09:09.561Z,0
2017-02-14T04:10:19.323Z,0
2017-02-14T04:11:29.570Z,0
2017-02-14T04:12:39.362Z,0
2017-02-14T04:13:49.605Z,0
2017-02-14T04:14:59.358Z,0
2017-02-14T04:16:09.136Z,0
2017-02-14T04:17:19.771Z,0
2017-02-14T04:18:29.973Z,0
2017-02-14T04:19:40.331Z,0
2017-02-14T04:20:49.640Z,0
2017-02-14T04:21:59.434Z,0
2017-02-14T04:23:09.214Z,0
2017-02-14T04:24:18.971Z,0
2017-02-14T04:25:29.229Z,0
2017-02-14T04:26:38.577Z,0
2017-02-14T04:27:49.234Z,0
2017-02-14T04:28:59.024Z,0
2017-02-14T04:30:08.778Z,0
2017-02-14T04:31:18.739Z,0
2017-02-14T04:32:28.520Z,0
2017-02-14T04:33:37.833Z,0
2017-02-14T04:34:47.598Z,0
2017-02-14T04:35:57.358Z,0
2017-02-14T04:37:07.628Z,0
2017-02-14T04:38:17.390Z,0
2017-02-14T04:39:27.584Z,0
2017-02-14T04:40:37.363Z,0
2017-02-14T04:41:47.597Z,0
2017-02-14T04:42:57.887Z,0
2017-02-14T04:44:07.655Z,0
2017-02-14T04:45:16.968Z,0
2017-02-14T04:46:26.739Z,0
2017-02-14T04:47:36.935Z,0
2017-02-14T04:48:47.188Z,0
2017-02-14T04:49:56.953Z,0
2017-02-14T04:51:06.735Z,0
2017-02-14T04:52:16.500Z,0
2017-02-14T04:53:26.256Z,0
2017-02-14T04:54:36.530Z,0
2017-02-14T04:55:46.292Z,0
2017-02-14T04:56:56.480Z,0
2017-02-14T04:58:06.269Z,0
2017-02-14T04:59:16.019Z,0
2017-02-14T05:00:25.836Z,0
2017-02-14T05:01:35.630Z,0
2017-02-14T05:02:45.867Z,0
2017-02-14T05:03:56.080Z,0
2017-02-14T05:05:05.850Z,0
2017-02-14T05:06:15.658Z,0
2017-02-14T05:07:25.480Z,0
2017-02-14T05:08:35.252Z,0
2017-02-14T05:09:44.565Z,0
2017-02-14T05:10:54.327Z,0
2017-02-14T05:12:04.152Z,0
2017-02-14T05:13:13.921Z,0
2017-02-14T05:14:24.130Z,0
2017-02-14T05:15:33.904Z,0
2017-02-14T05:16:43.680Z,0
2017-02-14T05:17:53.926Z,0
2017-02-14T05:19:03.251Z,0
2017-02-14T05:20:13.460Z,0
2017-02-14T05:21:23.246Z,0
2017-02-14T05:22:33.447Z,0
2017-02-14T05:23:42.828Z,0
2017-02-14T05:24:52.586Z,0
2017-02-14T05:26:02.350Z,0
2017-02-14T05:27:12.116Z,0
2017-02-14T05:28:22.346Z,0
2017-02-14T05:29:32.690Z,0
2017-02-14T05:30:42.471Z,0
2017-02-14T05:31:52.272Z,0
2017-02-14T05:33:02.465Z,0
2017-02-14T05:34:12.213Z,0
2017-02-14T05:35:22.024Z,0
2017-02-14T05:36:31.349Z,0
2017-02-14T05:37:41.122Z,0
2017-02-14T05:38:51.351Z,4
2017-02-14T05:40:01.560Z,0
2017-02-14T05:41:11.814Z,4
2017-02-14T05:42:21.598Z,0
2017-02-14T05:43:32.267Z,0
2017-02-14T05:44:42.040Z,0
2017-02-14T05:45:52.230Z,0
2017-02-14T05:47:02.493Z,0
2017-02-14T05:48:12.240Z,0
2017-02-14T05:49:22.022Z,0
2017-02-14T05:50:31.779Z,0
2017-02-14T05:51:41.104Z,0
2017-02-14T05:52:50.938Z,0
2017-02-14T05:54:00.728Z,0
2017-02-14T05:55:10.032Z,0
2017-02-14T05:56:19.804Z,0
2017-02-14T05:57:29.563Z,0
2017-02-14T05:58:39.824Z,0
2017-02-14T05:59:49.134Z,0
2017-02-14T06:00:58.902Z,0
2017-02-14T06:02:08.675Z,0
2017-02-14T06:03:18.440Z,0
2017-02-14T06:04:27.899Z,0
2017-02-14T06:05:37.681Z,0
2017-02-14T06:06:47.876Z,0
2017-02-14T06:07:57.633Z,0
2017-02-14T06:09:07.830Z,4
2017-02-14T06:10:17.631Z,4
2017-02-14T06:11:27.404Z,0
2017-02-14T06:12:37.177Z,4
2017-02-14T06:13:46.934Z,4
2017-02-14T06:14:57.148Z,4
2017-02-14T06:16:07.111Z,4
2017-02-14T06:17:16.437Z,4
2017-02-14T06:18:25.756Z,8
2017-02-14T06:19:35.556Z,12
2017-02-14T06:20:45.306Z,12
2017-02-14T06:21:54.731Z,12
2017-02-14T06:23:04.500Z,20
2017-02-14T06:24:14.271Z,20
2017-02-14T06:25:24.510Z,24
2017-02-14T06:26:34.744Z,28
2017-02-14T06:27:44.564Z,32
2017-02-14T06:28:55.206Z,36
2017-02-14T06:30:04.959Z,44
2017-02-14T06:31:14.716Z,48
2017-02-14T06:32:24.472Z,56
2017-02-14T06:33:34.283Z,60
2017-02-14T06:34:44.504Z,68
2017-02-14T06:35:54.712Z,76
2017-02-14T06:37:05.349Z,88
2017-02-14T06:38:15.115Z,100
2017-02-14T06:39:24.937Z,108
2017-02-14T06:40:35.141Z,116
2017-02-14T06:41:45.347Z,128
2017-02-14T06:42:55.108Z,140
2017-02-14T06:44:04.473Z,156
2017-02-14T06:45:14.731Z,168
2017-02-14T06:46:24.492Z,176
2017-02-14T06:47:34.697Z,188
2017-02-14T06:48:44.466Z,204
2017-02-14T06:49:54.232Z,216
2017-02-14T06:51:04.064Z,228
2017-02-14T06:52:14.265Z,244
2017-02-14T06:53:23.586Z,260
2017-02-14T06:54:34.252Z,272
2017-02-14T06:55:44.011Z,288
2017-02-14T06:56:55.186Z,304
2017-02-14T06:58:05.420Z,320
2017-02-14T06:59:15.193Z,332
2017-02-14T07:00:24.956Z,348
2017-02-14T07:01:35.171Z,360
2017-02-14T07:02:44.562Z,376
2017-02-14T07:03:54.766Z,392
2017-02-14T07:05:04.535Z,408
2017-02-14T07:06:14.754Z,424
2017-02-14T07:07:24.533Z,436
2017-02-14T07:08:34.341Z,456
2017-02-14T07:09:44.158Z,472
2017-02-14T07:10:54.820Z,488
2017-02-14T07:12:04.133Z,504
2017-02-14T07:13:14.339Z,516
2017-02-14T07:14:25.044Z,532
2017-02-14T07:15:34.389Z,544
2017-02-14T07:16:44.166Z,564
2017-02-14T07:17:54.815Z,576
2017-02-14T07:19:04.564Z,592
2017-02-14T07:20:14.374Z,604
2017-02-14T07:21:24.158Z,620
2017-02-14T07:22:34.368Z,632
2017-02-14T07:23:43.709Z,644
2017-02-14T07:24:53.922Z,656
2017-02-14T07:26:03.723Z,672
2017-02-14T07:27:13.039Z,688
2017-02-14T07:28:22.794Z,704
2017-02-14T07:29:32.579Z,724
2017-02-14T07:30:42.772Z,740
2017-02-14T07:31:52.598Z,764
2017-02-14T07:33:02.367Z,780
2017-02-14T07:34:11.728Z,804
2017-02-14T07:35:21.504Z,824
2017-02-14T07:36:31.282Z,844
2017-02-14T07:37:41.536Z,860
2017-02-14T07:38:50.873Z,876
2017-02-14T07:40:01.078Z,896
2017-02-14T07:41:10.822Z,916
2017-02-14T07:42:20.603Z,940
2017-02-14T07:43:30.438Z,964
2017-02-14T07:44:40.658Z,988
2017-02-14T07:45:50.456Z,1008
2017-02-14T07:47:00.243Z,1032
2017-02-14T07:48:10.002Z,1044
2017-02-14T07:49:19.832Z,1056
2017-02-14T07:50:30.483Z,1064
2017-02-14T07:51:41.122Z,1064
2017-02-14T07:52:50.902Z,1068
2017-02-14T07:54:00.684Z,1072
2017-02-14T07:55:10.649Z,1080
2017-02-14T07:56:20.883Z,1072
2017-02-14T07:57:30.636Z,1064
2017-02-14T07:58:40.837Z,1060
2017-02-14T07:59:50.614Z,1068
2017-02-14T08:01:00.419Z,1072
2017-02-14T08:02:10.618Z,1084
2017-02-14T08:03:20.825Z,1092
2017-02-14T08:04:30.597Z,1092
2017-02-14T08:05:40.807Z,1092
2017-02-14T08:06:50.645Z,1100
2017-02-14T08:08:00.431Z,1104
2017-02-14T08:09:10.199Z,1116
2017-02-14T08:10:20.404Z,1132
2017-02-14T08:11:30.178Z,1136
2017-02-14T08:12:39.999Z,1136
2017-02-14T08:13:49.764Z,1132
2017-02-14T08:14:59.987Z,1148
2017-02-14T08:16:10.202Z,1148
2017-02-14T08:17:19.950Z,1144
2017-02-14T08:18:29.757Z,1152
2017-02-14T08:19:39.536Z,1152
2017-02-14T08:20:49.309Z,1156
2017-02-14T08:21:59.516Z,1160
2017-02-14T08:23:09.705Z,1168
2017-02-14T08:24:19.522Z,1180
2017-02-14T08:25:29.314Z,1192
2017-02-14T08:26:39.967Z,1204
2017-02-14T08:27:50.161Z,1216
2017-02-14T08:29:00.383Z,1228
2017-02-14T08:30:10.245Z,1224
2017-02-14T08:31:20.033Z,1236
2017-02-14T08:32:29.791Z,1240
2017-02-14T08:33:39.572Z,1248
2017-02-14T08:34:48.937Z,1272
2017-02-14T08:35:58.742Z,1280
2017-02-14T08:37:08.512Z,1288
2017-02-14T08:38:18.288Z,1288
2017-02-14T08:39:28.057Z,1292
2017-02-14T08:40:37.826Z,1300
2017-02-14T08:41:47.635Z,1312
2017-02-14T08:42:57.403Z,1328
2017-02-14T08:44:07.626Z,1344
2017-02-14T08:45:17.403Z,1348
2017-02-14T08:46:27.209Z,1356
2017-02-14T08:47:37.031Z,1356
2017-02-14T08:48:46.350Z,1360
2017-02-14T08:49:57.032Z,1372
2017-02-14T08:51:07.228Z,1384
2017-02-14T08:52:16.989Z,1404
2017-02-14T08:53:28.118Z,1412
2017-02-14T08:54:38.760Z,1424
2017-02-14T08:55:48.520Z,1440
2017-02-14T08:56:59.177Z,1456
2017-02-14T08:58:08.932Z,1480
2017-02-14T08:59:18.741Z,1500
2017-02-14T09:00:28.522Z,1512
2017-02-14T09:01:38.339Z,1528
2017-02-14T09:02:48.555Z,1536
2017-02-14T09:03:58.765Z,1552
2017-02-14T09:05:08.587Z,1572
2017-02-14T09:06:19.228Z,1584
2017-02-14T09:07:28.542Z,1604
2017-02-14T09:08:38.304Z,1620
2017-02-14T09:09:48.976Z,1636
2017-02-14T09:10:59.269Z,1652
2017-02-14T09:12:08.599Z,1668
2017-02-14T09:13:17.938Z,1684
2017-02-14T09:14:28.583Z,1700
2017-02-14T09:15:38.335Z,1712
2017-02-14T09:16:48.155Z,1720
2017-02-14T09:17:58.842Z,1736
2017-02-14T09:19:09.477Z,1748
2017-02-14T09:20:19.249Z,1772
2017-02-14T09:21:29.455Z,1796
2017-02-14T09:22:39.359Z,1784
2017-02-14T09:23:49.109Z,1796
2017-02-14T09:24:58.427Z,1808
2017-02-14T09:26:09.092Z,1828
2017-02-14T09:27:18.877Z,1844
2017-02-14T09:28:28.726Z,1848
2017-02-14T09:29:38.506Z,1856
2017-02-14T09:30:48.719Z,1876
2017-02-14T09:31:58.042Z,1892
2017-02-14T09:33:07.805Z,1896
2017-02-14T09:34:18.125Z,1920
2017-02-14T09:35:27.877Z,1936
2017-02-14T09:36:37.623Z,1960
2017-02-14T09:37:47.384Z,1988
2017-02-14T09:38:57.593Z,2008
2017-02-14T09:40:07.417Z,2048
2017-02-14T09:41:17.187Z,2072
2017-02-14T09:42:27.004Z,2124
2017-02-14T09:43:36.759Z,2148
2017-02-14T09:44:46.527Z,2200
2017-02-14T09:45:56.336Z,2244
2017-02-14T09:47:06.098Z,2304
2017-02-14T09:48:16.759Z,2344
2017-02-14T09:49:27.008Z,2384
2017-02-14T09:50:36.765Z,2428
2017-02-14T09:51:46.610Z,2484
2017-02-14T09:52:56.388Z,2532
2017-02-14T09:54:06.146Z,2596
2017-02-14T09:55:15.918Z,2636
2017-02-14T09:56:26.140Z,2684
2017-02-14T09:57:35.979Z,2728
2017-02-14T09:58:45.752Z,2768
2017-02-14T09:59:55.965Z,2828
2017-02-14T10:01:06.168Z,2892
2017-02-14T10:02:15.925Z,2936
2017-02-14T10:03:25.742Z,2964
2017-02-14T10:04:36.396Z,3016
2017-02-14T10:05:46.177Z,3084
2017-02-14T10:06:55.958Z,3144
2017-02-14T10:08:05.735Z,3224
2017-02-14T10:09:16.023Z,3260
2017-02-14T10:10:26.669Z,3296
2017-02-14T10:11:36.001Z,3364
2017-02-14T10:12:46.217Z,3416
2017-02-14T10:13:56.444Z,3452
2017-02-14T10:15:06.283Z,3520
2017-02-14T10:16:15.631Z,3540
2017-02-14T10:17:25.845Z,3568
2017-02-14T10:18:35.176Z,3636
2017-02-14T10:19:45.386Z,3648
2017-02-14T10:20:55.188Z,3716
2017-02-14T10:22:04.973Z,3744
2017-02-14T10:23:14.787Z,3796
2017-02-14T10:24:24.555Z,3872
2017-02-14T10:25:34.765Z,3924
2017-02-14T10:26:44.569Z,3956
2017-02-14T10:27:55.231Z,4004
2017-02-14T10:29:04.566Z,4052
2017-02-14T10:30:14.757Z,4108
2017-02-14T10:31:24.950Z,4136
2017-02-14T10:32:34.771Z,4196
2017-02-14T10:33:44.536Z,4200
2017-02-14T10:34:54.293Z,4220
2017-02-14T10:36:04.959Z,4260
2017-02-14T10:37:15.168Z,4316
2017-02-14T10:38:25.004Z,4352
2017-02-14T10:39:35.217Z,4400
2017-02-14T10:40:45.421Z,4416
2017-02-14T10:41:55.613Z,4456
2017-02-14T10:43:04.931Z,4492
2017-02-14T10:44:14.336Z,4552
2017-02-14T10:45:24.088Z,4604
2017-02-14T10:46:33.843Z,4624
2017-02-14T10:47:43.607Z,4672
2017-02-14T10:48:53.828Z,4744
2017-02-14T10:50:04.138Z,4772
2017-02-14T10:51:13.930Z,4832
2017-02-14T10:52:24.179Z,4840
2017-02-14T10:53:35.268Z,4868
2017-02-14T10:54:45.040Z,4916
2017-02-14T10:55:54.508Z,4940
2017-02-14T10:57:05.157Z,4972
2017-02-14T10:58:15.377Z,5048
2017-02-14T10:59:25.155Z,5088
2017-02-14T11:00:34.948Z,5148
2017-02-14T11:01:45.214Z,5148
2017-02-14T11:02:54.967Z,5172
2017-02-14T11:04:04.728Z,5192
2017-02-14T11:05:14.475Z,5224
2017-02-14T11:06:25.123Z,5284
2017-02-14T11:07:35.828Z,5308
2017-02-14T11:08:46.057Z,5340
2017-02-14T11:09:56.334Z,5340
2017-02-14T11:11:06.550Z,5368
2017-02-14T11:12:16.960Z,5396
2017-02-14T11:13:26.800Z,5388
2017-02-14T11:14:37.455Z,5460
2017-02-14T11:15:47.668Z,5488
2017-02-14T11:16:57.427Z,5560
2017-02-14T11:18:07.654Z,5572
2017-02-14T11:19:17.915Z,5540
2017-02-14T11:20:27.675Z,5608
2017-02-14T11:21:37.902Z,5560
2017-02-14T11:22:47.659Z,5548
2017-02-14T11:23:57.448Z,5520
2017-02-14T11:25:07.266Z,5496
2017-02-14T11:26:17.038Z,5600
2017-02-14T11:27:26.384Z,5568
2017-02-14T11:28:36.157Z,5568
2017-02-14T11:29:46.348Z,5536
2017-02-14T11:30:56.155Z,5640
2017-02-14T11:32:05.471Z,5668
2017-02-14T11:33:15.697Z,5644
2017-02-14T11:34:25.470Z,5700
2017-02-14T11:35:34.790Z,5700
2017-02-14T11:36:45.057Z,5688
2017-02-14T11:37:55.717Z,5716
2017-02-14T11:39:05.488Z,5688
2017-02-14T11:40:15.260Z,5684
2017-02-14T11:41:25.042Z,5684
2017-02-14T11:42:35.297Z,5668
2017-02-14T11:43:45.932Z,5672
2017-02-14T11:44:55.709Z,5656
2017-02-14T11:46:05.497Z,5644
2017-02-14T11:47:15.727Z,5628
2017-02-14T11:48:25.540Z,5696
2017-02-14T11:49:35.306Z,5672
2017-02-14T11:50:45.065Z,5716
2017-02-14T11:51:54.837Z,5660
2017-02-14T11:53:04.597Z,5716
2017-02-14T11:54:14.415Z,5724
2017-02-14T11:55:24.184Z,5724
2017-02-14T11:56:33.945Z,5720
2017-02-14T11:57:44.611Z,5804
2017-02-14T11:58:54.399Z,5848
2017-02-14T12:00:03.799Z,5800
2017-02-14T12:01:13.553Z,5828
2017-02-14T12:02:23.321Z,5872
2017-02-14T12:03:33.096Z,5868
2017-02-14T12:04:42.441Z,5888
2017-02-14T12:05:52.243Z,5940
2017-02-14T12:07:02.024Z,5960
2017-02-14T12:08:11.785Z,5972
2017-02-14T12:09:21.565Z,6024
2017-02-14T12:10:31.769Z,6032
2017-02-14T12:11:42.504Z,6048
2017-02-14T12:12:52.265Z,6040
2017-02-14T12:14:02.039Z,6012
2017-02-14T12:15:11.794Z,6008
2017-02-14T12:16:21.995Z,5988
2017-02-14T12:17:32.355Z,5996
2017-02-14T12:18:42.145Z,5928
2017-02-14T12:19:52.351Z,5932
2017-02-14T12:21:02.146Z,5880
2017-02-14T12:22:11.934Z,5884
2017-02-14T12:23:22.216Z,5876
2017-02-14T12:24:31.980Z,5824
2017-02-14T12:25:41.755Z,5800
2017-02-14T12:26:51.550Z,5788
2017-02-14T12:28:01.757Z,5632
2017-02-14T12:29:11.584Z,5704
2017-02-14T12:30:21.795Z,5588
2017-02-14T12:31:32.436Z,5636
2017-02-14T12:32:42.190Z,5516
2017-02-14T12:33:51.507Z,5584
2017-02-14T12:35:01.312Z,5596
2017-02-14T12:36:11.095Z,5584
2017-02-14T12:37:21.316Z,5524
2017-02-14T12:38:31.534Z,5484
2017-02-14T12:39:42.651Z,5452
2017-02-14T12:40:53.001Z,5412
2017-02-14T12:42:02.811Z,5352
2017-02-14T12:43:12.580Z,5248
2017-02-14T12:44:22.815Z,5176
2017-02-14T12:45:33.018Z,5144
2017-02-14T12:46:42.835Z,5140
2017-02-14T12:47:52.600Z,5120
2017-02-14T12:49:02.830Z,5124
2017-02-14T12:50:13.462Z,5160
2017-02-14T12:51:23.232Z,5124
2017-02-14T12:52:33.049Z,5084
2017-02-14T12:53:42.837Z,5084
2017-02-14T12:54:52.604Z,5032
2017-02-14T12:56:02.360Z,4952
2017-02-14T12:57:12.589Z,4848
2017-02-14T12:58:22.866Z,4860
2017-02-14T12:59:33.072Z,4888
2017-02-14T13:00:42.837Z,4868
2017-02-14T13:01:52.634Z,4808
2017-02-14T13:03:02.836Z,4680
2017-02-14T13:04:13.095Z,4788
2017-02-14T13:05:22.870Z,4776
2017-02-14T13:06:32.676Z,4776
2017-02-14T13:07:42.455Z,4688
2017-02-14T13:08:52.233Z,4680
2017-02-14T13:10:02.051Z,4612
2017-02-14T13:11:11.825Z,4344
2017-02-14T13:12:22.045Z,4536
2017-02-14T13:13:31.834Z,4272
2017-02-14T13:14:41.159Z,4380
2017-02-14T13:15:51.031Z,4368
2017-02-14T13:17:01.249Z,4348
2017-02-14T13:18:11.021Z,4308
2017-02-14T13:19:21.224Z,4292
2017-02-14T13:20:30.985Z,4256
2017-02-14T13:21:40.791Z,4196
2017-02-14T13:22:50.548Z,4148
2017-02-14T13:24:00.783Z,4116
2017-02-14T13:25:11.009Z,4016
2017-02-14T13:26:21.207Z,4028
2017-02-14T13:27:31.011Z,4008
2017-02-14T13:28:40.788Z,3960
2017-02-14T13:29:50.547Z,3924
2017-02-14T13:31:00.318Z,3888
2017-02-14T13:32:10.083Z,3872
2017-02-14T13:33:19.889Z,3820
2017-02-14T13:34:29.211Z,3784
2017-02-14T13:35:38.968Z,3752
2017-02-14T13:36:48.739Z,3656
2017-02-14T13:37:58.966Z,3632
2017-02-14T13:39:08.789Z,3564
2017-02-14T13:40:18.555Z,3508
2017-02-14T13:41:28.310Z,3476
2017-02-14T13:42:38.526Z,3456
2017-02-14T13:43:48.289Z,3412
2017-02-14T13:44:58.113Z,3372
2017-02-14T13:46:07.903Z,3336
2017-02-14T13:47:17.664Z,3276
2017-02-14T13:48:27.877Z,3232
2017-02-14T13:49:37.642Z,3188
2017-02-14T13:50:47.592Z,3148
2017-02-14T13:51:56.937Z,3124
2017-02-14T13:53:06.737Z,3116
2017-02-14T13:54:16.503Z,3096
2017-02-14T13:55:26.293Z,3088
2017-02-14T13:56:37.020Z,3076
2017-02-14T13:57:47.259Z,3072
2017-02-14T13:58:57.032Z,3024
2017-02-14T14:00:06.820Z,2980
2017-02-14T14:01:16.599Z,2916
2017-02-14T14:02:26.423Z,2840
2017-02-14T14:03:36.651Z,2636
2017-02-14T14:04:46.436Z,2480
2017-02-14T14:05:57.527Z,2140
2017-02-14T14:07:06.893Z,1976
2017-02-14T14:08:17.160Z,1728
2017-02-14T14:09:27.813Z,1632
2017-02-14T14:10:37.140Z,1552
2017-02-14T14:11:46.920Z,1500
2017-02-14T14:12:57.162Z,1484
2017-02-14T14:14:07.867Z,1412
2017-02-14T14:15:17.650Z,1372
2017-02-14T14:16:27.429Z,1324
2017-02-14T14:17:38.066Z,1304
2017-02-14T14:18:48.705Z,1284
2017-02-14T14:19:58.520Z,1324
2017-02-14T14:21:08.743Z,1368
2017-02-14T14:22:18.528Z,1396
2017-02-14T14:23:28.317Z,1388
2017-02-14T14:24:38.075Z,1336
2017-02-14T14:25:47.907Z,1288
2017-02-14T14:26:57.681Z,1252
2017-02-14T14:28:07.914Z,1228
2017-02-14T14:29:17.663Z,1216
2017-02-14T14:30:27.864Z,1204
2017-02-14T14:31:38.117Z,1200
2017-02-14T14:32:48.766Z,1208
2017-02-14T14:33:58.551Z,1244
2017-02-14T14:35:08.767Z,1212
2017-02-14T14:36:18.993Z,1188
2017-02-14T14:37:29.699Z,1164
2017-02-14T14:38:39.905Z,1152
2017-02-14T14:39:49.685Z,1148
2017-02-14T14:40:59.022Z,1144
2017-02-14T14:42:09.696Z,1144
2017-02-14T14:43:19.973Z,1128
2017-02-14T14:44:30.183Z,1132
2017-02-14T14:45:40.424Z,1124
2017-02-14T14:46:50.667Z,1096
2017-02-14T14:48:00.470Z,1088
2017-02-14T14:49:10.743Z,1092
2017-02-14T14:50:20.569Z,1076
2017-02-14T14:51:30.336Z,1068
2017-02-14T14:52:41.023Z,1060
2017-02-14T14:53:51.241Z,1048
2017-02-14T14:55:01.975Z,1036
2017-02-14T14:56:11.758Z,1044
2017-02-14T14:57:21.527Z,1036
2017-02-14T14:58:31.309Z,1028
2017-02-14T14:59:41.098Z,1016
2017-02-14T15:00:51.390Z,1008
2017-02-14T15:02:01.169Z,1008
2017-02-14T15:03:11.815Z,1004
2017-02-14T15:04:22.461Z,984
2017-02-14T15:05:33.575Z,984
2017-02-14T15:06:44.292Z,980
2017-02-14T15:07:54.965Z,980
2017-02-14T15:09:05.635Z,968
2017-02-14T15:10:16.739Z,952
2017-02-14T15:11:27.849Z,940
2017-02-14T15:12:39.034Z,928
2017-02-14T15:13:50.163Z,920
2017-02-14T15:15:01.305Z,908
2017-02-14T15:16:11.610Z,896
2017-02-14T15:17:22.597Z,892
2017-02-14T15:18:32.214Z,880
2017-02-14T15:19:43.032Z,868
2017-02-14T15:20:52.878Z,848
2017-02-14T15:22:04.016Z,836
2017-02-14T15:23:15.253Z,820
2017-02-14T15:24:26.547Z,808
2017-02-14T15:25:36.360Z,796
2017-02-14T15:26:47.538Z,776
2017-02-14T15:27:57.950Z,760
2017-02-14T15:29:08.387Z,756
2017-02-14T15:30:19.392Z,744
2017-02-14T15:31:30.227Z,732
2017-02-14T15:32:41.070Z,728
2017-02-14T15:33:51.937Z,712
2017-02-14T15:35:03.437Z,704
2017-02-14T15:36:14.027Z,700
2017-02-14T15:37:24.483Z,692
2017-02-14T15:38:35.628Z,684
2017-02-14T15:39:47.297Z,668
2017-02-14T15:40:58.916Z,656
2017-02-14T15:42:09.181Z,644
2017-02-14T15:43:19.370Z,628
2017-02-14T15:44:30.094Z,620
2017-02-14T15:45:41.152Z,604
2017-02-14T15:46:51.733Z,592
2017-02-14T15:48:03.431Z,576
2017-02-14T15:49:13.165Z,564
2017-02-14T15:50:23.808Z,544
2017-02-14T15:51:34.983Z,536
2017-02-14T15:52:45.711Z,520
2017-02-14T15:53:57.427Z,504
2017-02-14T15:55:08.639Z,484
2017-02-14T15:56:19.398Z,472
2017-02-14T15:57:30.648Z,456
2017-02-14T15:58:41.432Z,440
2017-02-14T15:59:52.730Z,420
2017-02-14T16:01:04.009Z,408
2017-02-14T16:02:15.536Z,392
2017-02-14T16:03:29.193Z,376
2017-02-14T16:04:41.391Z,360
2017-02-14T16:05:52.908Z,348
2017-02-14T16:07:04.133Z,332
2017-02-14T16:08:15.839Z,316
2017-02-14T16:09:26.589Z,304
2017-02-14T16:10:37.373Z,288
2017-02-14T16:11:49.626Z,276
2017-02-14T16:13:01.479Z,260
2017-02-14T16:14:12.393Z,248
2017-02-14T16:15:24.118Z,236
2017-02-14T16:16:35.407Z,220